Terminal Aerodrome Forecast
Issued by NWS Newport/Morehead City, NC

Home | Current Version | Previous Version | Text Only | Print | Product List | Glossary On
Versions: 1 2 3 4 5 6 7 8 9 10 11 12 13 14 15 16
000
FTUS42 KMHX 300544
TAFEWN
TAF
KEWN 300544Z 3006/3106 18003KT P6SM SKC
     FM300800 00000KT 5SM BR SCT025
     FM301230 16006KT P6SM SCT050=

USA.gov is the U.S. government's official web portal to all federal, state and local government web resources and services.